Time;durP1;ratioP1;P1;durP2;ratioP2;P2;SDS_P1;SDS_P2;PMS_P1;PMS_P2;Temp;Humidity;BMP_temperature;BMP_pressure;BME280_temperature;BME280_humidity;BME280_pressure;Samples;Min_cycle;Max_cycle;Signal;HPM_P1;HPM_P2
2022/02/10 00:21:24;;;;;;;;;;;;;;;15.04;59.72;102166.75;4993986;28;19945;-83
2022/02/10 00:34:40;;;;;;;;;;;;;;;14.00;64.86;102146.63;4993824;28;20236;-84
2022/02/10 00:37:13;;;;;;;;;;;;;;;13.98;64.14;102144.94;4993806;28;19921;-84
2022/02/10 00:42:24;;;;;;;;;;;;;;;14.37;62.93;102141.47;4993786;28;19928;-84
2022/02/10 00:44:49;;;;;;;;;;;;;;;14.01;62.89;102139.38;4976320;28;20020;-84
2022/02/10 00:47:14;;;;;;;;;;;;;;;13.35;64.88;102140.16;4976261;28;19980;-84
2022/02/10 00:49:40;;;;;;;;;;;;;;;13.46;65.65;102131.59;4976149;28;19923;-83
2022/02/10 00:52:07;;;;;;;;;;;;;;;14.39;63.48;102130.53;4976123;28;20033;-84
2022/02/10 00:54:36;;;;;;;;;;;;;;;14.02;62.45;102126.66;4993816;28;19914;-84
2022/02/10 00:57:03;;;;;;;;;;;;;;;14.23;64.79;102124.88;4976244;28;19917;-83
2022/02/10 00:59:41;;;;;;;;;;;;;;;13.97;64.68;102126.84;4976208;28;20074;-83
2022/02/10 01:31:51;;;;;;;;;;;;;;;12.72;69.40;102083.59;4993508;28;19973;-84
2022/02/10 01:34:16;;;;;;;;;;;;;;;13.31;67.40;102081.41;4993126;28;19918;-84
2022/02/10 01:36:41;;;;;;;;;;;;;;;13.25;65.73;102070.78;4975755;28;19922;-84
2022/02/10 01:39:07;;;;;;;;;;;;;;;13.93;66.04;102073.50;4994387;28;19914;-83
2022/02/10 01:58:23;;;;;;;;;;;;;;;13.94;64.12;102042.63;4997039;28;19925;-84
2022/02/10 02:03:32;;;;;;;;;;;;;;;13.88;64.17;102037.47;4996879;28;19925;-85
2022/02/10 02:06:04;;;;;;;;;;;;;;;14.06;63.87;102035.78;4996404;28;19922;-84
2022/02/10 02:08:32;;;;;;;;;;;;;;;13.55;63.78;102044.22;4979149;28;20020;-84
2022/02/10 02:10:59;;;;;;;;;;;;;;;14.76;62.16;102031.75;4978936;28;19973;-84
2022/02/10 02:13:24;;;;;;;;;;;;;;;13.57;65.05;102033.28;4978731;28;19926;-84
2022/02/10 02:15:51;;;;;;;;;;;;;;;14.27;63.61;102023.06;4996085;28;19914;-83
2022/02/10 02:18:17;;;;;;;;;;;;;;;13.65;66.17;102025.72;4978876;28;19924;-84
2022/02/10 02:20:44;;;;;;;;;;;;;;;14.12;63.46;102017.34;4978779;28;19922;-84
2022/02/10 02:23:09;;;;;;;;;;;;;;;14.12;63.93;102021.91;4978441;28;19918;-84
2022/02/10 02:25:34;;;;;;;;;;;;;;;13.32;66.72;102022.50;4978550;28;20265;-84
2022/02/10 02:28:01;;;;;;;;;;;;;;;14.31;63.23;102025.59;4978726;28;20510;-84
2022/02/10 02:30:36;;;;;;;;;;;;;;;13.96;64.53;102029.84;4995933;28;19964;-84
2022/02/10 03:06:31;;;;;;;;;;;;;;;13.22;68.69;101986.66;4995708;28;20402;-83
2022/02/10 03:08:24;;;;;;;;;;;;;;;13.38;68.62;101979.69;4981379;28;19917;-82
2022/02/10 03:13:21;;;;;;;;;;;;;;;13.24;70.03;101973.88;4995182;28;19928;-83
2022/02/10 04:07:36;;;;;;;;;;;;;;;13.74;68.79;101970.94;4994683;28;19944;-82
2022/02/10 04:23:38;;;;;;;;;;;;;;;13.29;70.17;101974.59;4950516;28;19925;-83
2022/02/10 04:55:55;;;;;;;;;;;;;;;13.96;65.70;101964.53;4994674;28;20402;-82
2022/02/10 05:24:39;;;;;;;;;;;;;;;14.77;59.41;101954.53;4997741;28;19922;-84
2022/02/10 05:35:52;;;;;;;;;;;;;;;14.68;60.13;101963.16;4953691;28;20435;-85
2022/02/10 05:38:30;;;;;;;;;;;;;;;14.84;59.25;101966.00;4997711;28;19925;-83
2022/02/10 05:43:55;;;;;;;;;;;;;;;15.06;58.22;101963.16;4997320;28;19925;-84
2022/02/10 05:51:47;;;;;;;;;;;;;;;14.32;61.07;101964.72;4997458;28;19925;-84
2022/02/10 05:56:57;;;;;;;;;;;;;;;14.70;59.19;101972.13;4997035;28;19981;-83
2022/02/10 05:59:48;;;;;;;;;;;;;;;14.40;60.97;101982.56;4997057;28;20013;-85
2022/02/10 06:51:45;;;;;;;;;;;;;;;15.29;55.57;102000.19;4995695;28;19933;-85
2022/02/10 06:57:46;;;;;;;;;;;;;;;14.54;57.34;102013.66;4952661;28;19949;-88
2022/02/10 07:48:38;;;;;;;;;;;;;;;14.60;55.66;102037.00;4994378;28;20416;-82
2022/02/10 07:55:18;;;;;;;;;;;;;;;13.97;57.80;102047.94;4995035;28;19920;-82
2022/02/10 07:56:56;;;;;;;;;;;;;;;14.32;57.17;102056.41;4981038;28;19968;-83
2022/02/10 08:17:59;;;;;;;;;;;;;;;13.83;58.26;102079.31;4993308;28;19928;-82
2022/02/10 09:04:24;;;;;;;;;;;;;;;14.15;54.73;102104.28;4994391;28;19917;-84
2022/02/10 10:00:12;;;;;;;;;;;;;;;14.80;52.77;102142.38;4993469;28;19941;-81
2022/02/10 10:02:43;;;;;;;;;;;;;;;14.61;52.44;102139.56;4978879;28;19918;-82
2022/02/10 10:08:13;;;;;;;;;;;;;;;14.36;53.10;102148.75;4997218;28;19921;-81
2022/02/10 10:11:14;;;;;;;;;;;;;;;13.74;54.16;102158.59;4995625;28;19961;-82
2022/02/10 10:19:32;;;;;;;;;;;;;;;15.02;51.93;102160.47;4995760;28;19918;-82
2022/02/10 10:22:06;;;;;;;;;;;;;;;14.65;51.43;102171.16;4993152;28;20318;-81
2022/02/10 10:27:35;;;;;;;;;;;;;;;14.10;52.32;102168.03;4996025;28;19984;-82
2022/02/10 10:56:59;;;;;;;;;;;;;;;14.35;52.85;102176.06;4997409;28;19924;-81
2022/02/10 10:59:41;;;;;;;;;;;;;;;14.24;53.11;102175.63;4979119;28;19918;-82
2022/02/10 11:37:41;;;;;;;;;;;;;;;14.35;47.09;102167.88;4994972;28;19924;-83
2022/02/10 11:40:19;;;;;;;;;;;;;;;14.39;46.30;102174.09;4976990;28;20252;-83
2022/02/10 11:43:04;;;;;;;;;;;;;;;14.06;48.12;102167.28;4976353;28;20368;-82
2022/02/10 12:00:35;;;;;;;;;;;;;;;13.40;51.72;102181.63;4994519;28;20009;-82
2022/02/10 12:39:15;;;;;;;;;;;;;;;12.98;49.25;102173.22;4995713;28;20292;-81
2022/02/10 14:14:40;;;;;;;;;;;;;;;13.55;45.44;102147.53;5000735;28;19975;-84
2022/02/10 14:17:11;;;;;;;;;;;;;;;13.44;44.58;102150.69;4995799;28;20336;-82
2022/02/10 14:27:15;;;;;;;;;;;;;;;14.03;44.56;102161.97;4994303;28;19924;-84
2022/02/10 14:29:42;;;;;;;;;;;;;;;14.49;44.49;102168.19;4995674;28;19918;-85
2022/02/10 14:32:09;;;;;;;;;;;;;;;13.06;44.77;102174.72;4987927;28;19953;-83
2022/02/10 14:34:34;;;;;;;;;;;;;;;13.54;44.32;102172.97;4988065;28;19922;-85
2022/02/10 14:43:01;;;;;;;;;;;;;;;13.69;43.82;102168.75;4993161;28;19956;-86
2022/02/10 15:46:00;;;;;;;;;;;;;;;12.89;47.05;102193.47;4994546;28;20009;-85
2022/02/10 16:17:13;;;;;;;;;;;;;;;12.21;46.65;102166.84;4993849;28;20049;-82
2022/02/10 16:19:40;;;;;;;;;;;;;;;13.14;44.48;102159.97;4993898;28;20008;-83
2022/02/10 16:22:21;;;;;;;;;;;;;;;12.57;44.97;102162.91;4993442;28;20395;-83
2022/02/10 16:27:16;;;;;;;;;;;;;;;12.33;45.04;102167.34;4994364;28;19918;-85
2022/02/10 16:29:41;;;;;;;;;;;;;;;12.16;45.95;102171.50;4994445;28;19924;-83
2022/02/10 16:32:09;;;;;;;;;;;;;;;13.17;44.54;102170.75;4976582;28;19918;-85
2022/02/10 16:34:43;;;;;;;;;;;;;;;13.45;44.20;102171.50;4994129;28;19924;-84
2022/02/10 16:37:10;;;;;;;;;;;;;;;13.29;44.78;102170.28;4976161;28;19933;-85
2022/02/10 16:39:36;;;;;;;;;;;;;;;13.18;44.35;102167.97;4976680;28;19922;-86
2022/02/10 16:42:03;;;;;;;;;;;;;;;13.01;44.83;102168.56;4975132;28;19921;-86
2022/02/10 16:44:29;;;;;;;;;;;;;;;12.75;44.83;102162.25;4974956;28;19929;-87
2022/02/10 16:46:54;;;;;;;;;;;;;;;12.80;44.93;102161.19;4975408;28;19922;-84
2022/02/10 16:49:22;;;;;;;;;;;;;;;12.60;45.17;102165.50;4993520;28;19925;-86
2022/02/10 16:51:47;;;;;;;;;;;;;;;12.50;45.89;102164.06;4976719;28;19918;-86
2022/02/10 16:57:13;;;;;;;;;;;;;;;11.86;46.90;102176.06;4994149;28;19924;-86
2022/02/10 16:59:47;;;;;;;;;;;;;;;13.22;43.99;102168.72;4991640;28;19957;-86
2022/02/10 17:02:46;;;;;;;;;;;;;;;12.27;45.62;102182.00;4976549;28;19925;-87
2022/02/10 17:28:43;;;;;;;;;;;;;;;12.86;44.43;102177.28;4998992;28;19968;-87
2022/02/10 17:36:43;;;;;;;;;;;;;;;12.55;44.63;102200.09;4998290;28;19932;-87
2022/02/10 17:42:20;;;;;;;;;;;;;;;12.58;44.77;102206.28;4993593;28;20426;-86
2022/02/10 17:53:03;;;;;;;;;;;;;;;12.67;43.49;102198.78;4997891;28;20311;-86
2022/02/10 17:55:29;;;;;;;;;;;;;;;12.60;43.67;102200.81;4979760;28;19922;-87
2022/02/10 17:57:54;;;;;;;;;;;;;;;12.79;43.83;102202.88;4980121;28;19925;-84
2022/02/10 18:00:25;;;;;;;;;;;;;;;12.77;43.98;102209.25;4980196;28;20284;-85
2022/02/10 18:02:53;;;;;;;;;;;;;;;13.06;43.29;102220.03;4980318;28;20020;-87
2022/02/10 18:05:50;;;;;;;;;;;;;;;12.37;44.32;102218.75;4979983;28;20382;-85
2022/02/10 18:08:05;;;;;;;;;;;;;;;12.78;43.78;102215.56;4997309;28;19924;-87
2022/02/10 18:13:35;;;;;;;;;;;;;;;12.92;43.08;102216.00;4997330;28;20019;-86
2022/02/10 18:16:04;;;;;;;;;;;;;;;12.86;43.62;102204.44;4979833;28;19953;-85
2022/02/10 18:18:40;;;;;;;;;;;;;;;13.27;42.96;102199.31;4997659;28;19922;-87
2022/02/10 18:24:04;;;;;;;;;;;;;;;13.05;43.35;102193.81;5000232;28;19929;-85
2022/02/10 18:29:19;;;;;;;;;;;;;;;12.98;43.36;102205.84;5000390;28;20418;-82
2022/02/10 19:07:06;;;;;;;;;;;;;;;12.44;46.86;102218.53;4996992;28;19918;-83
2022/02/10 19:09:38;;;;;;;;;;;;;;;11.52;49.47;102223.19;4996864;28;19918;-84
2022/02/10 19:12:13;;;;;;;;;;;;;;;11.63;48.86;102231.00;4979174;28;19929;-84
2022/02/10 19:14:38;;;;;;;;;;;;;;;12.40;47.57;102224.06;4979709;28;20403;-83
2022/02/10 19:17:05;;;;;;;;;;;;;;;12.09;48.64;102228.72;4978598;28;19973;-82
2022/02/10 19:19:30;;;;;;;;;;;;;;;12.51;47.85;102226.44;4978132;28;20012;-81
2022/02/10 19:21:55;;;;;;;;;;;;;;;12.30;48.35;102225.31;4995714;28;20008;-82
2022/02/10 19:24:21;;;;;;;;;;;;;;;11.57;49.74;102221.22;4977794;28;20011;-82
2022/02/10 19:26:50;;;;;;;;;;;;;;;12.11;48.53;102218.69;4995694;28;19922;-81
2022/02/10 19:29:16;;;;;;;;;;;;;;;11.93;48.81;102229.22;4995164;28;20005;-81
2022/02/10 19:31:41;;;;;;;;;;;;;;;11.85;49.40;102231.22;4995079;28;20000;-81
2022/02/10 19:34:06;;;;;;;;;;;;;;;12.30;47.65;102222.59;4977648;28;19917;-83
2022/02/10 19:36:33;;;;;;;;;;;;;;;12.92;46.55;102216.00;4977828;28;19918;-81
2022/02/10 19:38:58;;;;;;;;;;;;;;;12.86;47.17;102221.63;4994831;28;19918;-84
2022/02/10 19:41:30;;;;;;;;;;;;;;;12.81;46.83;102218.19;4977618;28;20245;-82
2022/02/10 19:43:55;;;;;;;;;;;;;;;12.63;47.50;102230.56;4977594;28;19926;-84
2022/02/10 19:46:20;;;;;;;;;;;;;;;11.55;50.23;102235.75;4978500;28;20016;-83
2022/02/10 19:48:46;;;;;;;;;;;;;;;11.75;49.91;102235.19;4996093;28;20442;-86
2022/02/10 19:51:11;;;;;;;;;;;;;;;11.42;50.68;102227.09;4996228;28;19925;-86
2022/02/10 19:53:36;;;;;;;;;;;;;;;12.30;48.70;102228.03;5001343;28;19918;-82
2022/02/10 19:56:02;;;;;;;;;;;;;;;12.28;48.44;102221.78;4985792;28;19924;-82
2022/02/10 19:58:27;;;;;;;;;;;;;;;12.78;47.00;102221.00;5004353;28;19917;-81
2022/02/10 20:00:57;;;;;;;;;;;;;;;11.58;50.01;102227.53;4979452;28;19918;-87
2022/02/10 20:03:24;;;;;;;;;;;;;;;11.67;49.15;102228.16;4995834;28;19917;-85
2022/02/10 20:05:51;;;;;;;;;;;;;;;11.04;51.48;102237.22;4995907;28;19925;-85
2022/02/10 20:08:17;;;;;;;;;;;;;;;11.91;49.04;102238.28;4978382;28;19918;-85
2022/02/10 20:10:43;;;;;;;;;;;;;;;12.19;47.95;102222.06;4995869;28;19929;-83
2022/02/10 20:13:09;;;;;;;;;;;;;;;11.59;48.89;102235.63;4977903;28;19922;-86
2022/02/10 20:15:34;;;;;;;;;;;;;;;12.14;48.12;102227.66;4978603;28;19964;-86
2022/02/10 20:18:05;;;;;;;;;;;;;;;12.38;47.27;102235.94;4979170;28;20000;-85
2022/02/10 20:20:31;;;;;;;;;;;;;;;11.92;48.59;102240.06;4978802;28;19933;-84
2022/02/10 20:22:57;;;;;;;;;;;;;;;12.05;48.42;102238.81;4978376;28;19925;-84
2022/02/10 20:25:23;;;;;;;;;;;;;;;11.46;49.12;102237.81;4995545;28;20312;-85
2022/02/10 20:27:48;;;;;;;;;;;;;;;12.22;47.74;102236.41;4982651;28;20372;-83
2022/02/10 20:30:13;;;;;;;;;;;;;;;11.40;49.15;102228.94;4998958;28;19917;-86
2022/02/10 20:32:39;;;;;;;;;;;;;;;11.42;49.66;102236.13;4995249;28;20410;-88
2022/02/10 20:35:06;;;;;;;;;;;;;;;11.21;48.98;102236.72;4977834;28;19918;-86
2022/02/10 20:37:31;;;;;;;;;;;;;;;11.35;48.89;102229.09;4994885;28;19918;-85
2022/02/10 20:39:56;;;;;;;;;;;;;;;11.31;48.95;102240.97;4995270;28;19932;-85
2022/02/10 20:42:22;;;;;;;;;;;;;;;11.38;48.54;102238.97;4977368;28;19922;-87
2022/02/10 20:44:53;;;;;;;;;;;;;;;10.85;48.96;102243.09;4977810;28;19933;-87
2022/02/10 20:47:20;;;;;;;;;;;;;;;10.90;48.73;102234.84;4978076;28;19924;-86
2022/02/10 20:49:46;;;;;;;;;;;;;;;10.89;48.60;102233.09;4982411;28;19917;-83
2022/02/10 20:52:11;;;;;;;;;;;;;;;10.95;48.58;102233.81;4998644;28;19973;-87
2022/02/10 20:54:38;;;;;;;;;;;;;;;10.98;48.49;102236.41;4999525;28;19918;-84
2022/02/10 20:57:03;;;;;;;;;;;;;;;11.30;47.20;102234.63;4980618;28;19988;-87
2022/02/10 21:02:02;;;;;;;;;;;;;;;11.18;47.55;102240.41;5000254;28;19972;-82
2022/02/10 21:04:31;;;;;;;;;;;;;;;11.19;47.30;102242.19;4982453;28;19925;-84
2022/02/10 21:07:08;;;;;;;;;;;;;;;10.95;48.37;102228.38;4979386;28;19918;-85
2022/02/10 21:12:03;;;;;;;;;;;;;;;10.76;47.31;102221.69;5002294;28;19989;-86
2022/02/10 21:14:29;;;;;;;;;;;;;;;10.91;46.97;102223.09;4985496;28;19928;-85
2022/02/10 21:16:55;;;;;;;;;;;;;;;10.85;46.66;102224.13;5002781;28;19928;-87
2022/02/10 21:19:23;;;;;;;;;;;;;;;10.53;47.39;102236.69;5001888;28;19918;-85
2022/02/10 21:21:48;;;;;;;;;;;;;;;10.75;47.43;102223.50;4983564;28;19917;-86
2022/02/10 21:24:19;;;;;;;;;;;;;;;10.63;47.18;102218.41;4983850;28;19918;-86
2022/02/10 21:29:30;;;;;;;;;;;;;;;11.47;45.22;102223.34;4998302;28;19925;-85
2022/02/10 21:31:57;;;;;;;;;;;;;;;10.95;46.19;102228.38;4998339;28;19925;-85
2022/02/10 21:34:26;;;;;;;;;;;;;;;10.91;46.32;102223.09;4981373;28;19925;-84
2022/02/10 21:39:31;;;;;;;;;;;;;;;11.46;45.32;102223.38;5001022;28;20008;-85
2022/02/10 22:04:00;;;;;;;;;;;;;;;11.20;46.04;102216.00;5000016;28;19924;-86
2022/02/10 22:09:26;;;;;;;;;;;;;;;10.63;47.74;102231.97;4999506;28;19925;-86
2022/02/10 22:17:41;;;;;;;;;;;;;;;10.36;48.07;102214.59;5001757;28;19964;-85
2022/02/10 22:20:09;;;;;;;;;;;;;;;10.39;47.62;102228.94;5001864;28;19918;-87
2022/02/10 22:22:37;;;;;;;;;;;;;;;10.28;48.08;102230.94;4984380;28;19918;-87
2022/02/10 22:25:09;;;;;;;;;;;;;;;10.48;47.45;102235.94;4985286;28;19918;-86
2022/02/10 22:27:40;;;;;;;;;;;;;;;10.28;48.41;102234.56;5001295;28;19965;-88
2022/02/10 22:30:15;;;;;;;;;;;;;;;10.21;48.53;102232.94;4983713;28;19918;-84
2022/02/10 22:32:49;;;;;;;;;;;;;;;10.52;47.89;102240.31;5000936;28;19925;-84
2022/02/10 22:35:16;;;;;;;;;;;;;;;10.14;48.57;102233.13;4983478;28;20205;-86
2022/02/10 22:37:42;;;;;;;;;;;;;;;10.59;47.70;102231.13;4982868;28;20241;-87
2022/02/10 22:40:23;;;;;;;;;;;;;;;10.31;48.06;102236.31;4982647;28;19924;-85
2022/02/10 22:42:48;;;;;;;;;;;;;;;10.22;48.61;102225.69;4982726;28;19925;-86
2022/02/10 22:45:14;;;;;;;;;;;;;;;10.81;46.94;102226.06;5000271;28;19922;-85
2022/02/10 22:47:39;;;;;;;;;;;;;;;11.02;46.69;102230.94;4982949;28;19925;-87
2022/02/10 22:50:05;;;;;;;;;;;;;;;10.18;48.20;102226.72;4982568;28;19917;-85
2022/02/10 22:52:30;;;;;;;;;;;;;;;10.08;47.96;102223.31;4982752;28;19924;-85
2022/02/10 22:54:55;;;;;;;;;;;;;;;10.64;46.94;102228.28;4984022;28;20344;-86
2022/02/10 22:57:20;;;;;;;;;;;;;;;10.65;47.16;102238.22;5001783;28;19918;-87
2022/02/10 22:59:46;;;;;;;;;;;;;;;10.29;47.06;102230.03;5001700;28;20269;-85
2022/02/10 23:02:11;;;;;;;;;;;;;;;10.31;47.27;102230.91;4984521;28;20327;-84
2022/02/10 23:04:36;;;;;;;;;;;;;;;10.66;46.70;102225.56;5001029;28;19950;-85
2022/02/10 23:07:07;;;;;;;;;;;;;;;10.43;47.36;102240.56;5004150;28;19957;-83
2022/02/10 23:09:46;;;;;;;;;;;;;;;10.46;46.81;102245.88;4989528;28;19918;-82
2022/02/10 23:12:12;;;;;;;;;;;;;;;10.12;47.80;102235.84;5009469;28;19918;-83
2022/02/10 23:14:37;;;;;;;;;;;;;;;9.99;48.07;102239.75;4991870;28;19953;-83
2022/02/10 23:17:02;;;;;;;;;;;;;;;10.09;47.43;102252.16;4987740;28;19918;-85
2022/02/10 23:19:28;;;;;;;;;;;;;;;10.42;47.42;102252.31;4986348;28;19925;-84
2022/02/10 23:21:53;;;;;;;;;;;;;;;10.85;46.40;102248.50;4988480;28;19964;-86
2022/02/10 23:24:19;;;;;;;;;;;;;;;10.43;47.67;102255.00;4988002;28;19969;-85
2022/02/10 23:26:44;;;;;;;;;;;;;;;10.28;47.51;102245.38;4987084;28;19993;-83
2022/02/10 23:29:09;;;;;;;;;;;;;;;10.77;47.05;102246.00;4988695;28;19945;-86
2022/02/10 23:31:47;;;;;;;;;;;;;;;10.32;47.84;102238.06;5003725;28;19918;-85
2022/02/10 23:34:13;;;;;;;;;;;;;;;10.39;47.98;102246.97;4985263;28;19917;-85
2022/02/10 23:36:45;;;;;;;;;;;;;;;10.89;46.92;102249.34;4985428;28;19964;-87
2022/02/10 23:44:43;;;;;;;;;;;;;;;10.33;49.00;102245.31;4976903;28;19925;-85
2022/02/10 23:47:11;;;;;;;;;;;;;;;10.94;47.35;102237.44;4983329;28;20073;-85
2022/02/10 23:49:38;;;;;;;;;;;;;;;10.36;48.94;102255.19;4983417;28;20391;-84
2022/02/10 23:52:06;;;;;;;;;;;;;;;11.21;47.25;102256.56;5000992;28;19941;-85
2022/02/10 23:54:36;;;;;;;;;;;;;;;10.50;48.83;102253.00;4983427;28;19924;-85
2022/02/10 23:57:08;;;;;;;;;;;;;;;11.06;48.14;102257.00;4983451;28;19967;-84
